sensor_id;sensor_type;location;lat;lon;timestamp;temperature;humidity
18781;DHT22;9519;51.890;8.970;2022-12-24T00:13:55;10.80;99.90
18781;DHT22;9519;51.890;8.970;2022-12-24T00:19:35;10.80;99.90
18781;DHT22;9519;51.890;8.970;2022-12-24T00:24:59;10.80;99.90
18781;DHT22;9519;51.890;8.970;2022-12-24T00:30:29;10.70;99.90
18781;DHT22;9519;51.890;8.970;2022-12-24T00:35:39;10.70;99.90
18781;DHT22;9519;51.890;8.970;2022-12-24T00:40:45;10.70;99.90
18781;DHT22;9519;51.890;8.970;2022-12-24T00:45:53;10.60;99.90
18781;DHT22;9519;51.890;8.970;2022-12-24T00:51:33;10.40;99.90
18781;DHT22;9519;51.890;8.970;2022-12-24T00:56:48;10.60;99.90
18781;DHT22;9519;51.890;8.970;2022-12-24T01:02:21;10.60;99.90
18781;DHT22;9519;51.890;8.970;2022-12-24T01:07:35;10.50;99.90
18781;DHT22;9519;51.890;8.970;2022-12-24T01:12:38;10.50;99.90
18781;DHT22;9519;51.890;8.970;2022-12-24T01:18:04;10.50;99.90
18781;DHT22;9519;51.890;8.970;2022-12-24T01:23:27;10.50;99.90
18781;DHT22;9519;51.890;8.970;2022-12-24T01:28:44;10.40;99.90
18781;DHT22;9519;51.890;8.970;2022-12-24T01:34:08;10.40;99.90
18781;DHT22;9519;51.890;8.970;2022-12-24T01:39:23;10.40;99.90
18781;DHT22;9519;51.890;8.970;2022-12-24T01:44:31;10.40;99.90
18781;DHT22;9519;51.890;8.970;2022-12-24T01:49:50;10.40;99.90
18781;DHT22;9519;51.890;8.970;2022-12-24T01:55:07;10.40;99.90
18781;DHT22;9519;51.890;8.970;2022-12-24T02:00:33;10.30;99.90
18781;DHT22;9519;51.890;8.970;2022-12-24T02:05:48;10.30;99.90
18781;DHT22;9519;51.890;8.970;2022-12-24T02:10:56;10.20;99.90
18781;DHT22;9519;51.890;8.970;2022-12-24T02:16:20;10.30;99.90
18781;DHT22;9519;51.890;8.970;2022-12-24T02:21:57;10.20;99.90
18781;DHT22;9519;51.890;8.970;2022-12-24T02:27:55;10.20;99.90
18781;DHT22;9519;51.890;8.970;2022-12-24T02:33:33;10.10;99.90
18781;DHT22;9519;51.890;8.970;2022-12-24T02:38:53;10.00;99.90
18781;DHT22;9519;51.890;8.970;2022-12-24T02:44:16;10.30;99.90
18781;DHT22;9519;51.890;8.970;2022-12-24T02:49:29;10.10;99.90
18781;DHT22;9519;51.890;8.970;2022-12-24T02:54:55;10.10;99.90
18781;DHT22;9519;51.890;8.970;2022-12-24T03:00:11;10.00;99.90
18781;DHT22;9519;51.890;8.970;2022-12-24T03:06:09;10.30;99.90
18781;DHT22;9519;51.890;8.970;2022-12-24T03:11:26;10.00;99.90
18781;DHT22;9519;51.890;8.970;2022-12-24T03:16:53;10.10;99.90
18781;DHT22;9519;51.890;8.970;2022-12-24T03:22:03;10.00;99.90
18781;DHT22;9519;51.890;8.970;2022-12-24T03:27:14;10.00;99.90
18781;DHT22;9519;51.890;8.970;2022-12-24T03:32:23;10.00;99.90
18781;DHT22;9519;51.890;8.970;2022-12-24T03:37:30;10.10;99.90
18781;DHT22;9519;51.890;8.970;2022-12-24T03:42:37;9.90;99.90
18781;DHT22;9519;51.890;8.970;2022-12-24T03:47:42;9.90;99.90
18781;DHT22;9519;51.890;8.970;2022-12-24T03:52:46;9.90;99.90
18781;DHT22;9519;51.890;8.970;2022-12-24T03:57:49;9.90;99.90
18781;DHT22;9519;51.890;8.970;2022-12-24T04:03:01;9.80;99.90
18781;DHT22;9519;51.890;8.970;2022-12-24T04:08:08;9.80;99.90
18781;DHT22;9519;51.890;8.970;2022-12-24T04:13:10;9.80;99.90
18781;DHT22;9519;51.890;8.970;2022-12-24T04:18:13;9.80;99.90
18781;DHT22;9519;51.890;8.970;2022-12-24T04:23:19;9.80;99.90
18781;DHT22;9519;51.890;8.970;2022-12-24T04:28:25;9.80;99.90
18781;DHT22;9519;51.890;8.970;2022-12-24T04:33:30;9.70;99.90
18781;DHT22;9519;51.890;8.970;2022-12-24T04:38:39;9.80;99.90
18781;DHT22;9519;51.890;8.970;2022-12-24T04:43:42;9.90;99.90
18781;DHT22;9519;51.890;8.970;2022-12-24T04:48:45;9.90;99.90
18781;DHT22;9519;51.890;8.970;2022-12-24T04:53:53;9.90;99.90
18781;DHT22;9519;51.890;8.970;2022-12-24T04:59:11;9.90;99.90
18781;DHT22;9519;51.890;8.970;2022-12-24T05:04:16;9.80;99.90
18781;DHT22;9519;51.890;8.970;2022-12-24T05:09:24;9.90;99.90
18781;DHT22;9519;51.890;8.970;2022-12-24T05:14:28;9.80;99.90
18781;DHT22;9519;51.890;8.970;2022-12-24T05:19:34;9.80;99.90
18781;DHT22;9519;51.890;8.970;2022-12-24T05:24:41;9.80;99.90
18781;DHT22;9519;51.890;8.970;2022-12-24T05:30:05;9.80;99.90
18781;DHT22;9519;51.890;8.970;2022-12-24T05:35:12;9.80;99.90
18781;DHT22;9519;51.890;8.970;2022-12-24T05:40:24;9.70;99.90
18781;DHT22;9519;51.890;8.970;2022-12-24T05:45:40;9.70;99.90
18781;DHT22;9519;51.890;8.970;2022-12-24T05:50:49;9.70;99.90
18781;DHT22;9519;51.890;8.970;2022-12-24T05:56:02;9.70;99.90
18781;DHT22;9519;51.890;8.970;2022-12-24T06:01:11;9.60;99.90
18781;DHT22;9519;51.890;8.970;2022-12-24T06:06:21;9.70;99.90
18781;DHT22;9519;51.890;8.970;2022-12-24T06:11:34;9.70;99.90
18781;DHT22;9519;51.890;8.970;2022-12-24T06:16:40;9.70;99.90
18781;DHT22;9519;51.890;8.970;2022-12-24T06:21:45;9.70;99.90
18781;DHT22;9519;51.890;8.970;2022-12-24T06:26:56;9.70;99.90
18781;DHT22;9519;51.890;8.970;2022-12-24T06:32:05;9.60;99.90
18781;DHT22;9519;51.890;8.970;2022-12-24T06:37:08;9.60;99.90
18781;DHT22;9519;51.890;8.970;2022-12-24T06:42:21;9.60;99.90
18781;DHT22;9519;51.890;8.970;2022-12-24T06:47:31;9.60;99.90
18781;DHT22;9519;51.890;8.970;2022-12-24T06:52:37;9.60;99.90
18781;DHT22;9519;51.890;8.970;2022-12-24T06:57:47;9.60;99.90
18781;DHT22;9519;51.890;8.970;2022-12-24T07:03:06;9.60;99.90
18781;DHT22;9519;51.890;8.970;2022-12-24T07:08:16;9.60;99.90
18781;DHT22;9519;51.890;8.970;2022-12-24T07:13:30;9.50;99.90
18781;DHT22;9519;51.890;8.970;2022-12-24T07:18:54;9.60;99.90
18781;DHT22;9519;51.890;8.970;2022-12-24T07:24:08;9.60;99.90
18781;DHT22;9519;51.890;8.970;2022-12-24T07:29:20;9.70;99.90
18781;DHT22;9519;51.890;8.970;2022-12-24T07:34:23;9.60;99.90
18781;DHT22;9519;51.890;8.970;2022-12-24T07:39:31;9.60;99.90
18781;DHT22;9519;51.890;8.970;2022-12-24T07:44:37;9.70;99.90
18781;DHT22;9519;51.890;8.970;2022-12-24T07:49:44;9.70;99.90
18781;DHT22;9519;51.890;8.970;2022-12-24T07:54:56;9.70;99.90
18781;DHT22;9519;51.890;8.970;2022-12-24T08:00:13;9.70;99.90
18781;DHT22;9519;51.890;8.970;2022-12-24T08:05:17;9.80;99.90
18781;DHT22;9519;51.890;8.970;2022-12-24T08:10:32;9.70;99.90
18781;DHT22;9519;51.890;8.970;2022-12-24T08:16:04;9.70;99.90
18781;DHT22;9519;51.890;8.970;2022-12-24T08:21:23;9.70;99.90
18781;DHT22;9519;51.890;8.970;2022-12-24T08:26:27;9.80;99.90
18781;DHT22;9519;51.890;8.970;2022-12-24T08:31:33;9.80;99.90
18781;DHT22;9519;51.890;8.970;2022-12-24T08:38:05;10.00;99.90
18781;DHT22;9519;51.890;8.970;2022-12-24T08:49:09;10.00;99.90
18781;DHT22;9519;51.890;8.970;2022-12-24T08:55:43;10.00;99.90
18781;DHT22;9519;51.890;8.970;2022-12-24T09:00:24;10.00;99.90
18781;DHT22;9519;51.890;8.970;2022-12-24T09:05:45;10.00;99.90
18781;DHT22;9519;51.890;8.970;2022-12-24T09:10:48;10.10;99.90
18781;DHT22;9519;51.890;8.970;2022-12-24T09:15:52;10.10;99.90
18781;DHT22;9519;51.890;8.970;2022-12-24T09:21:04;10.10;99.90
18781;DHT22;9519;51.890;8.970;2022-12-24T09:26:23;10.30;99.90
18781;DHT22;9519;51.890;8.970;2022-12-24T09:31:27;10.30;99.90
18781;DHT22;9519;51.890;8.970;2022-12-24T09:36:36;10.30;99.90
18781;DHT22;9519;51.890;8.970;2022-12-24T09:41:59;10.30;99.90
18781;DHT22;9519;51.890;8.970;2022-12-24T09:47:13;10.30;99.90
18781;DHT22;9519;51.890;8.970;2022-12-24T09:52:29;10.30;99.90
18781;DHT22;9519;51.890;8.970;2022-12-24T09:57:37;9.90;99.90
18781;DHT22;9519;51.890;8.970;2022-12-24T10:02:42;10.30;99.90
18781;DHT22;9519;51.890;8.970;2022-12-24T10:07:55;10.30;99.90
18781;DHT22;9519;51.890;8.970;2022-12-24T10:13:08;10.20;99.90
18781;DHT22;9519;51.890;8.970;2022-12-24T10:18:22;10.20;99.90
18781;DHT22;9519;51.890;8.970;2022-12-24T10:23:37;10.20;99.90
18781;DHT22;9519;51.890;8.970;2022-12-24T10:28:46;10.20;99.90
18781;DHT22;9519;51.890;8.970;2022-12-24T10:33:56;10.30;99.90
18781;DHT22;9519;51.890;8.970;2022-12-24T10:39:03;10.30;99.90
18781;DHT22;9519;51.890;8.970;2022-12-24T10:44:07;10.30;99.90
18781;DHT22;9519;51.890;8.970;2022-12-24T10:49:18;10.40;99.90
18781;DHT22;9519;51.890;8.970;2022-12-24T10:54:25;10.30;99.90
18781;DHT22;9519;51.890;8.970;2022-12-24T10:59:32;10.40;99.90
18781;DHT22;9519;51.890;8.970;2022-12-24T11:04:46;10.40;99.90
18781;DHT22;9519;51.890;8.970;2022-12-24T11:09:56;10.40;99.90
18781;DHT22;9519;51.890;8.970;2022-12-24T11:15:02;10.40;99.90
18781;DHT22;9519;51.890;8.970;2022-12-24T11:20:16;10.50;99.90
18781;DHT22;9519;51.890;8.970;2022-12-24T11:25:22;10.50;99.90
18781;DHT22;9519;51.890;8.970;2022-12-24T11:30:30;10.50;99.90
18781;DHT22;9519;51.890;8.970;2022-12-24T11:35:39;10.50;99.90
18781;DHT22;9519;51.890;8.970;2022-12-24T11:40:48;10.60;99.90
18781;DHT22;9519;51.890;8.970;2022-12-24T11:46:11;10.50;99.90
18781;DHT22;9519;51.890;8.970;2022-12-24T11:51:25;10.60;99.90
18781;DHT22;9519;51.890;8.970;2022-12-24T11:56:42;10.70;99.90
18781;DHT22;9519;51.890;8.970;2022-12-24T12:01:54;10.70;99.90
18781;DHT22;9519;51.890;8.970;2022-12-24T12:07:03;10.70;99.90
18781;DHT22;9519;51.890;8.970;2022-12-24T12:12:16;10.80;99.90
18781;DHT22;9519;51.890;8.970;2022-12-24T12:17:26;10.80;99.90
18781;DHT22;9519;51.890;8.970;2022-12-24T12:22:38;11.00;99.90
18781;DHT22;9519;51.890;8.970;2022-12-24T12:27:51;11.00;99.90
18781;DHT22;9519;51.890;8.970;2022-12-24T12:32:59;11.00;99.90
18781;DHT22;9519;51.890;8.970;2022-12-24T12:38:09;11.00;99.90
18781;DHT22;9519;51.890;8.970;2022-12-24T12:43:24;11.00;99.90
18781;DHT22;9519;51.890;8.970;2022-12-24T12:48:52;11.00;99.90
18781;DHT22;9519;51.890;8.970;2022-12-24T12:54:27;11.00;99.90
18781;DHT22;9519;51.890;8.970;2022-12-24T12:59:45;10.90;99.90
18781;DHT22;9519;51.890;8.970;2022-12-24T13:11:15;11.00;99.90
18781;DHT22;9519;51.890;8.970;2022-12-24T13:16:55;11.00;99.90
18781;DHT22;9519;51.890;8.970;2022-12-24T13:22:26;10.90;99.90
18781;DHT22;9519;51.890;8.970;2022-12-24T13:27:29;10.90;99.90
18781;DHT22;9519;51.890;8.970;2022-12-24T13:32:50;10.90;99.90
18781;DHT22;9519;51.890;8.970;2022-12-24T13:49:36;10.90;99.90
18781;DHT22;9519;51.890;8.970;2022-12-24T13:54:46;10.90;99.90
18781;DHT22;9519;51.890;8.970;2022-12-24T13:59:56;10.90;99.90
18781;DHT22;9519;51.890;8.970;2022-12-24T14:05:14;10.90;99.90
18781;DHT22;9519;51.890;8.970;2022-12-24T14:10:23;10.80;99.90
18781;DHT22;9519;51.890;8.970;2022-12-24T14:16:08;10.80;99.90
18781;DHT22;9519;51.890;8.970;2022-12-24T14:21:41;10.90;99.90
18781;DHT22;9519;51.890;8.970;2022-12-24T14:26:49;10.80;99.90
18781;DHT22;9519;51.890;8.970;2022-12-24T14:31:59;10.70;99.90
18781;DHT22;9519;51.890;8.970;2022-12-24T14:37:05;10.70;99.90
18781;DHT22;9519;51.890;8.970;2022-12-24T14:42:24;10.60;99.90
18781;DHT22;9519;51.890;8.970;2022-12-24T14:47:51;10.60;99.90
18781;DHT22;9519;51.890;8.970;2022-12-24T14:53:14;10.50;99.90
18781;DHT22;9519;51.890;8.970;2022-12-24T14:58:34;10.60;99.90
18781;DHT22;9519;51.890;8.970;2022-12-24T15:03:39;10.60;99.90
18781;DHT22;9519;51.890;8.970;2022-12-24T15:08:46;10.60;99.90
18781;DHT22;9519;51.890;8.970;2022-12-24T15:13:53;10.60;99.90
18781;DHT22;9519;51.890;8.970;2022-12-24T15:19:05;10.60;99.90
18781;DHT22;9519;51.890;8.970;2022-12-24T15:24:28;10.60;99.90
18781;DHT22;9519;51.890;8.970;2022-12-24T15:29:38;10.50;99.90
18781;DHT22;9519;51.890;8.970;2022-12-24T15:34:46;10.50;99.90
18781;DHT22;9519;51.890;8.970;2022-12-24T15:39:57;10.40;99.90
18781;DHT22;9519;51.890;8.970;2022-12-24T15:45:11;10.30;99.90
18781;DHT22;9519;51.890;8.970;2022-12-24T15:50:18;10.20;99.90
18781;DHT22;9519;51.890;8.970;2022-12-24T15:55:33;10.20;99.90
18781;DHT22;9519;51.890;8.970;2022-12-24T16:00:41;10.00;99.90
18781;DHT22;9519;51.890;8.970;2022-12-24T16:06:00;10.10;99.90
18781;DHT22;9519;51.890;8.970;2022-12-24T16:11:17;10.00;99.90
18781;DHT22;9519;51.890;8.970;2022-12-24T16:16:35;10.00;99.90
18781;DHT22;9519;51.890;8.970;2022-12-24T16:21:51;10.00;99.90
18781;DHT22;9519;51.890;8.970;2022-12-24T16:27:12;9.90;99.90
18781;DHT22;9519;51.890;8.970;2022-12-24T16:32:28;9.90;99.90
18781;DHT22;9519;51.890;8.970;2022-12-24T16:37:35;9.80;99.90
18781;DHT22;9519;51.890;8.970;2022-12-24T16:42:39;9.80;99.90
18781;DHT22;9519;51.890;8.970;2022-12-24T16:48:00;9.80;99.90
18781;DHT22;9519;51.890;8.970;2022-12-24T16:53:09;9.70;99.90
18781;DHT22;9519;51.890;8.970;2022-12-24T16:58:38;9.70;99.90
18781;DHT22;9519;51.890;8.970;2022-12-24T17:04:23;9.80;99.90
18781;DHT22;9519;51.890;8.970;2022-12-24T17:09:54;9.50;99.90
18781;DHT22;9519;51.890;8.970;2022-12-24T17:15:14;9.50;99.90
18781;DHT22;9519;51.890;8.970;2022-12-24T17:20:32;9.50;99.90
18781;DHT22;9519;51.890;8.970;2022-12-24T18:07:27;9.50;99.90
18781;DHT22;9519;51.890;8.970;2022-12-24T18:13:28;9.50;99.90
18781;DHT22;9519;51.890;8.970;2022-12-24T18:18:52;9.50;99.90
18781;DHT22;9519;51.890;8.970;2022-12-24T18:24:03;9.50;99.90
18781;DHT22;9519;51.890;8.970;2022-12-24T18:29:14;9.40;99.90
18781;DHT22;9519;51.890;8.970;2022-12-24T18:34:22;9.30;99.90
18781;DHT22;9519;51.890;8.970;2022-12-24T18:39:32;9.40;99.90
18781;DHT22;9519;51.890;8.970;2022-12-24T18:44:43;9.30;99.90
18781;DHT22;9519;51.890;8.970;2022-12-24T18:49:52;9.30;99.90
18781;DHT22;9519;51.890;8.970;2022-12-24T18:55:26;9.30;99.90
18781;DHT22;9519;51.890;8.970;2022-12-24T19:01:32;9.30;99.90
18781;DHT22;9519;51.890;8.970;2022-12-24T19:07:48;9.20;99.90
18781;DHT22;9519;51.890;8.970;2022-12-24T19:20:26;9.10;99.90
18781;DHT22;9519;51.890;8.970;2022-12-24T19:45:03;9.10;99.90
18781;DHT22;9519;51.890;8.970;2022-12-24T19:50:35;8.90;99.90
18781;DHT22;9519;51.890;8.970;2022-12-24T19:56:13;9.40;99.90
18781;DHT22;9519;51.890;8.970;2022-12-24T20:01:44;8.80;99.90
18781;DHT22;9519;51.890;8.970;2022-12-24T20:07:17;8.90;99.90
18781;DHT22;9519;51.890;8.970;2022-12-24T20:13:01;8.80;99.90
18781;DHT22;9519;51.890;8.970;2022-12-24T20:18:23;8.80;99.90
18781;DHT22;9519;51.890;8.970;2022-12-24T20:29:28;8.70;99.90
18781;DHT22;9519;51.890;8.970;2022-12-24T20:34:47;8.70;99.90
18781;DHT22;9519;51.890;8.970;2022-12-24T20:40:04;8.70;99.90
18781;DHT22;9519;51.890;8.970;2022-12-24T20:45:27;8.80;99.90
18781;DHT22;9519;51.890;8.970;2022-12-24T20:50:48;8.70;99.90
18781;DHT22;9519;51.890;8.970;2022-12-24T20:56:26;8.60;99.90
18781;DHT22;9519;51.890;8.970;2022-12-24T21:01:54;8.50;99.90
18781;DHT22;9519;51.890;8.970;2022-12-24T21:07:12;8.50;99.90
18781;DHT22;9519;51.890;8.970;2022-12-24T21:12:39;8.40;99.90
18781;DHT22;9519;51.890;8.970;2022-12-24T21:18:08;8.40;99.90
18781;DHT22;9519;51.890;8.970;2022-12-24T21:23:20;8.50;99.90
18781;DHT22;9519;51.890;8.970;2022-12-24T21:28:30;8.50;99.90
18781;DHT22;9519;51.890;8.970;2022-12-24T21:33:44;8.60;99.90
18781;DHT22;9519;51.890;8.970;2022-12-24T21:38:56;8.60;99.90
18781;DHT22;9519;51.890;8.970;2022-12-24T21:44:09;8.60;99.90
18781;DHT22;9519;51.890;8.970;2022-12-24T21:49:21;8.70;99.90
18781;DHT22;9519;51.890;8.970;2022-12-24T21:54:52;8.70;99.90
18781;DHT22;9519;51.890;8.970;2022-12-24T21:59:58;8.70;99.90
18781;DHT22;9519;51.890;8.970;2022-12-24T22:05:26;8.70;99.90
18781;DHT22;9519;51.890;8.970;2022-12-24T22:10:47;8.70;99.90
18781;DHT22;9519;51.890;8.970;2022-12-24T22:16:16;8.70;99.90
18781;DHT22;9519;51.890;8.970;2022-12-24T22:21:49;8.80;99.90
18781;DHT22;9519;51.890;8.970;2022-12-24T22:26:58;8.80;99.90
18781;DHT22;9519;51.890;8.970;2022-12-24T22:32:12;8.80;99.90
18781;DHT22;9519;51.890;8.970;2022-12-24T22:37:32;8.60;99.90
18781;DHT22;9519;51.890;8.970;2022-12-24T22:42:43;8.50;99.90
18781;DHT22;9519;51.890;8.970;2022-12-24T22:47:47;8.30;99.90
18781;DHT22;9519;51.890;8.970;2022-12-24T22:52:57;8.20;99.90
18781;DHT22;9519;51.890;8.970;2022-12-24T22:58:03;8.00;99.90
18781;DHT22;9519;51.890;8.970;2022-12-24T23:03:10;8.00;99.90
18781;DHT22;9519;51.890;8.970;2022-12-24T23:08:29;7.80;99.90
18781;DHT22;9519;51.890;8.970;2022-12-24T23:13:40;7.70;99.90
18781;DHT22;9519;51.890;8.970;2022-12-24T23:19:03;7.60;99.90
18781;DHT22;9519;51.890;8.970;2022-12-24T23:24:22;7.50;99.90
18781;DHT22;9519;51.890;8.970;2022-12-24T23:29:33;7.50;99.90
18781;DHT22;9519;51.890;8.970;2022-12-24T23:34:37;7.40;99.90
18781;DHT22;9519;51.890;8.970;2022-12-24T23:39:40;7.30;99.90
18781;DHT22;9519;51.890;8.970;2022-12-24T23:44:48;7.50;99.90
18781;DHT22;9519;51.890;8.970;2022-12-24T23:50:13;7.10;99.90
18781;DHT22;9519;51.890;8.970;2022-12-24T23:55:19;7.30;99.90
